Time;durP1;ratioP1;P1;durP2;ratioP2;P2;SDS_P1;SDS_P2;PMS_P1;PMS_P2;Temp;Humidity;BMP_temperature;BMP_pressure;BME280_temperature;BME280_humidity;BME280_pressure;Samples;Min_cycle;Max_cycle;Signal;HPM_P1;HPM_P2
2021/05/15 00:01:05;;;;;;;;;;;19.40;64.10;;;;;;5092265;28;1110;-63
2021/05/15 00:03:30;;;;;;;;;;;19.40;64.10;;;;;;5092760;28;1027;-63
2021/05/15 00:05:56;;;;;;;;;;;19.40;64.10;;;;;;5092356;28;1282;-65
2021/05/15 00:08:21;;;;;;;;;;;19.40;64.20;;;;;;5092778;28;1094;-64
2021/05/15 00:10:48;;;;;;;;;;;19.40;64.20;;;;;;5091138;28;1070;-65
2021/05/15 00:13:14;;;;;;;;;;;19.40;64.20;;;;;;5074456;28;1917;-65
2021/05/15 00:15:39;;;;;;;;;;;19.40;64.20;;;;;;5091488;28;1382;-65
2021/05/15 00:18:05;;;;;;;;;;;19.40;64.20;;;;;;5092927;28;1058;-65
2021/05/15 00:20:30;;;;;;;;;;;19.40;64.20;;;;;;5087350;28;1094;-65
2021/05/15 00:22:55;;;;;;;;;;;19.40;64.20;;;;;;5092650;28;1177;-64
2021/05/15 00:25:21;;;;;;;;;;;19.40;64.30;;;;;;5092050;28;1349;-65
2021/05/15 00:27:46;;;;;;;;;;;19.40;64.30;;;;;;5091918;28;1091;-65
2021/05/15 00:30:12;;;;;;;;;;;19.40;64.20;;;;;;5084467;28;1158;-64
2021/05/15 00:32:38;;;;;;;;;;;19.40;64.30;;;;;;5092516;28;1902;-64
2021/05/15 00:35:04;;;;;;;;;;;19.40;64.30;;;;;;5074082;28;1261;-66
2021/05/15 00:37:29;;;;;;;;;;;19.40;64.30;;;;;;5073607;28;1158;-65
2021/05/15 00:39:55;;;;;;;;;;;19.40;64.30;;;;;;5073902;28;1095;-65
2021/05/15 00:42:20;;;;;;;;;;;19.40;64.30;;;;;;5092062;28;1149;-64
2021/05/15 00:44:46;;;;;;;;;;;19.40;64.30;;;;;;5091927;28;1298;-66
2021/05/15 00:47:12;;;;;;;;;;;19.40;64.30;;;;;;5091540;28;1129;-65
2021/05/15 00:49:37;;;;;;;;;;;19.40;64.30;;;;;;5092006;28;1103;-65
2021/05/15 00:52:02;;;;;;;;;;;19.40;64.30;;;;;;5092259;28;1051;-64
2021/05/15 00:54:28;;;;;;;;;;;19.40;65.00;;;;;;5092275;28;1894;-65
2021/05/15 00:56:53;;;;;;;;;;;19.40;64.30;;;;;;5092010;28;1070;-65
2021/05/15 00:59:19;;;;;;;;;;;19.40;64.30;;;;;;5096457;28;1075;-64
2021/05/15 01:01:44;;;;;;;;;;;19.40;64.30;;;;;;5095735;28;1062;-65
2021/05/15 01:04:10;;;;;;;;;;;19.40;64.30;;;;;;5096103;28;1295;-66
2021/05/15 01:06:36;;;;;;;;;;;19.40;64.30;;;;;;5095764;28;1254;-65
2021/05/15 01:09:02;;;;;;;;;;;19.40;64.30;;;;;;5077871;28;1380;-65
2021/05/15 01:11:27;;;;;;;;;;;19.40;64.30;;;;;;5089761;28;2687;-64
2021/05/15 01:13:53;;;;;;;;;;;19.40;64.30;;;;;;5091518;28;1909;-65
2021/05/15 01:16:19;;;;;;;;;;;19.40;64.40;;;;;;5076699;28;1683;-65
2021/05/15 01:18:44;;;;;;;;;;;19.40;64.40;;;;;;5095923;28;1375;-65
2021/05/15 01:21:10;;;;;;;;;;;19.40;64.40;;;;;;5091134;28;1444;-65
2021/05/15 01:23:35;;;;;;;;;;;19.40;64.40;;;;;;5095531;28;1596;-65
2021/05/15 01:26:10;;;;;;;;;;;19.40;64.40;;;;;;5095094;28;1575;-65
2021/05/15 01:28:36;;;;;;;;;;;19.40;64.40;;;;;;5077582;28;1516;-65
2021/05/15 01:31:01;;;;;;;;;;;19.40;64.40;;;;;;5087330;28;1561;-65
2021/05/15 01:33:26;;;;;;;;;;;19.40;64.40;;;;;;5095355;28;1894;-64
2021/05/15 01:35:52;;;;;;;;;;;19.40;64.40;;;;;;5094955;28;1699;-64
2021/05/15 01:38:17;;;;;;;;;;;19.40;64.40;;;;;;5095659;28;1372;-65
2021/05/15 01:40:43;;;;;;;;;;;19.40;64.40;;;;;;5095483;28;1641;-65
2021/05/15 01:43:08;;;;;;;;;;;19.40;64.40;;;;;;5095548;28;1702;-64
2021/05/15 01:45:34;;;;;;;;;;;19.40;64.40;;;;;;5093865;28;1394;-66
2021/05/15 01:47:59;;;;;;;;;;;19.40;64.40;;;;;;5077227;28;1589;-66
2021/05/15 01:50:25;;;;;;;;;;;19.30;64.40;;;;;;5095471;28;1386;-65
2021/05/15 01:52:50;;;;;;;;;;;19.40;64.40;;;;;;5094933;28;1910;-65
2021/05/15 01:55:24;;;;;;;;;;;19.30;64.40;;;;;;5094375;28;1355;-65
2021/05/15 01:57:50;;;;;;;;;;;19.40;64.40;;;;;;5095405;28;1652;-65
2021/05/15 02:00:15;;;;;;;;;;;19.30;64.40;;;;;;5094932;28;1186;-65
2021/05/15 02:02:41;;;;;;;;;;;19.30;64.40;;;;;;5076840;28;1048;-65
2021/05/15 02:05:09;;;;;;;;;;;19.30;64.40;;;;;;5094119;28;1368;-66
2021/05/15 02:07:35;;;;;;;;;;;19.30;64.40;;;;;;5094402;28;1667;-65
2021/05/15 02:10:00;;;;;;;;;;;19.30;64.40;;;;;;5095093;28;1567;-65
2021/05/15 02:12:26;;;;;;;;;;;19.30;64.40;;;;;;5095094;28;1914;-64
2021/05/15 02:14:51;;;;;;;;;;;19.40;64.50;;;;;;5076448;28;1468;-65
2021/05/15 02:17:16;;;;;;;;;;;19.30;64.40;;;;;;5093774;28;1739;-64
2021/05/15 02:19:42;;;;;;;;;;;19.30;64.40;;;;;;5092547;28;1719;-65
2021/05/15 02:22:07;;;;;;;;;;;19.40;64.50;;;;;;5092220;28;1597;-65
2021/05/15 02:24:33;;;;;;;;;;;19.40;64.50;;;;;;5095109;28;1450;-65
2021/05/15 02:26:58;;;;;;;;;;;19.30;64.50;;;;;;5093157;28;1705;-65
2021/05/15 02:29:24;;;;;;;;;;;19.30;64.40;;;;;;5088995;28;1354;-65
2021/05/15 02:31:49;;;;;;;;;;;19.30;64.50;;;;;;5083843;28;1449;-65
2021/05/15 02:34:14;;;;;;;;;;;19.30;64.50;;;;;;5082954;28;1902;-65
2021/05/15 02:36:40;;;;;;;;;;;19.30;64.50;;;;;;5084200;28;1282;-64
2021/05/15 02:39:05;;;;;;;;;;;19.30;64.50;;;;;;5083868;28;1363;-65
2021/05/15 02:41:31;;;;;;;;;;;19.30;64.50;;;;;;5084622;28;1261;-65
2021/05/15 02:43:56;;;;;;;;;;;19.30;64.50;;;;;;5084973;28;1178;-65
2021/05/15 02:46:22;;;;;;;;;;;19.30;64.50;;;;;;5086624;28;1386;-66
2021/05/15 02:48:47;;;;;;;;;;;19.30;64.50;;;;;;5085107;28;1229;-65
2021/05/15 02:51:12;;;;;;;;;;;19.30;64.50;;;;;;5087931;28;1270;-65
2021/05/15 02:53:38;;;;;;;;;;;19.30;64.50;;;;;;5083047;28;1898;-64
2021/05/15 02:56:03;;;;;;;;;;;19.30;64.50;;;;;;5083130;28;1388;-64
2021/05/15 02:58:29;;;;;;;;;;;19.30;64.50;;;;;;5085107;28;1695;-66
2021/05/15 03:00:54;;;;;;;;;;;19.30;64.50;;;;;;5084987;28;1324;-66
2021/05/15 03:03:20;;;;;;;;;;;19.30;64.60;;;;;;5084953;28;1187;-66
2021/05/15 03:05:45;;;;;;;;;;;19.30;64.50;;;;;;5086558;28;1303;-64
2021/05/15 03:08:11;;;;;;;;;;;19.30;64.60;;;;;;5084486;28;1215;-66
2021/05/15 03:10:36;;;;;;;;;;;19.30;64.60;;;;;;5085472;28;1191;-65
2021/05/15 03:13:02;;;;;;;;;;;19.30;64.60;;;;;;5082292;28;1953;-66
2021/05/15 03:15:27;;;;;;;;;;;19.30;64.60;;;;;;5082675;28;1390;-66
2021/05/15 03:17:53;;;;;;;;;;;19.30;64.60;;;;;;5084507;28;1375;-66
2021/05/15 03:20:22;;;;;;;;;;;19.30;64.60;;;;;;5089862;28;1278;-64
2021/05/15 03:22:48;;;;;;;;;;;19.30;64.60;;;;;;5093282;28;1063;-64
2021/05/15 03:25:13;;;;;;;;;;;19.30;64.60;;;;;;5092773;28;1358;-65
2021/05/15 03:27:39;;;;;;;;;;;19.30;64.60;;;;;;5093293;28;1095;-64
2021/05/15 03:30:05;;;;;;;;;;;19.30;64.60;;;;;;5085163;28;1043;-65
2021/05/15 03:32:30;;;;;;;;;;;19.30;64.60;;;;;;5092196;28;1961;-63
2021/05/15 03:34:56;;;;;;;;;;;19.30;64.60;;;;;;5093160;28;1340;-65
2021/05/15 03:37:21;;;;;;;;;;;19.30;64.60;;;;;;5092347;28;1118;-65
2021/05/15 03:39:46;;;;;;;;;;;19.30;64.60;;;;;;5093251;28;1071;-64
2021/05/15 03:42:12;;;;;;;;;;;19.30;64.60;;;;;;5092997;28;1114;-65
2021/05/15 03:44:37;;;;;;;;;;;19.30;64.50;;;;;;5092982;28;1258;-65
2021/05/15 03:47:03;;;;;;;;;;;19.30;64.60;;;;;;5092174;28;1094;-65
2021/05/15 03:49:28;;;;;;;;;;;19.30;64.50;;;;;;5092775;28;1115;-65
2021/05/15 03:51:54;;;;;;;;;;;19.30;64.40;;;;;;5093183;28;1046;-65
2021/05/15 03:54:19;;;;;;;;;;;19.30;64.40;;;;;;5092416;28;1906;-64
2021/05/15 03:56:45;;;;;;;;;;;19.30;64.30;;;;;;5091984;28;1141;-65
2021/05/15 03:59:10;;;;;;;;;;;19.30;64.30;;;;;;5092967;28;1166;-65
2021/05/15 04:01:36;;;;;;;;;;;19.30;64.30;;;;;;5092802;28;1231;-65
2021/05/15 04:04:01;;;;;;;;;;;19.40;64.30;;;;;;5092530;28;1146;-66
2021/05/15 04:06:26;;;;;;;;;;;19.40;64.30;;;;;;5091548;28;1328;-65
2021/05/15 04:08:52;;;;;;;;;;;19.40;64.30;;;;;;5092382;28;1118;-66
2021/05/15 04:11:17;;;;;;;;;;;19.40;64.30;;;;;;5092378;28;1102;-66
2021/05/15 04:13:48;;;;;;;;;;;19.40;64.30;;;;;;5092656;28;1973;-65
2021/05/15 04:16:42;;;;;;;;;;;19.40;64.20;;;;;;5092012;28;1357;-65
2021/05/15 04:19:08;;;;;;;;;;;19.40;64.20;;;;;;5074185;28;1312;-65
2021/05/15 04:21:34;;;;;;;;;;;19.40;64.10;;;;;;5087040;28;1110;-66
2021/05/15 04:23:59;;;;;;;;;;;19.40;64.10;;;;;;5092670;28;1127;-65
2021/05/15 04:26:25;;;;;;;;;;;19.40;64.10;;;;;;5091637;28;1267;-66
2021/05/15 04:28:50;;;;;;;;;;;19.40;64.10;;;;;;5092373;28;1110;-65
2021/05/15 04:31:16;;;;;;;;;;;19.40;64.10;;;;;;5066016;28;1122;-66
2021/05/15 04:33:41;;;;;;;;;;;19.40;64.00;;;;;;5092325;28;1890;-65
2021/05/15 04:36:06;;;;;;;;;;;19.40;64.00;;;;;;5091408;28;1215;-66
2021/05/15 04:38:32;;;;;;;;;;;19.40;64.00;;;;;;5092359;28;1177;-65
2021/05/15 04:40:57;;;;;;;;;;;19.40;64.00;;;;;;5092223;28;1126;-65
2021/05/15 04:43:23;;;;;;;;;;;19.40;64.00;;;;;;5092121;28;1083;-65
2021/05/15 04:45:48;;;;;;;;;;;19.40;64.00;;;;;;5091245;28;1221;-65
2021/05/15 04:48:14;;;;;;;;;;;19.40;64.00;;;;;;5092235;28;1113;-65
2021/05/15 04:50:39;;;;;;;;;;;19.50;64.00;;;;;;5091952;28;1121;-65
2021/05/15 04:53:05;;;;;;;;;;;19.50;64.00;;;;;;5092055;28;1897;-65
2021/05/15 04:55:30;;;;;;;;;;;19.40;64.00;;;;;;5073705;28;1278;-65
2021/05/15 04:57:58;;;;;;;;;;;19.40;63.90;;;;;;5092111;28;1070;-64
2021/05/15 05:00:23;;;;;;;;;;;19.40;63.90;;;;;;5092395;28;1178;-66
2021/05/15 05:02:49;;;;;;;;;;;19.50;64.00;;;;;;5074274;28;1137;-66
2021/05/15 05:05:14;;;;;;;;;;;19.40;63.90;;;;;;5090637;28;1285;-66
2021/05/15 05:07:40;;;;;;;;;;;19.50;64.00;;;;;;5092104;28;1236;-66
2021/05/15 05:10:05;;;;;;;;;;;19.50;64.00;;;;;;5092307;28;1071;-66
2021/05/15 05:12:31;;;;;;;;;;;19.50;64.00;;;;;;5091790;28;1961;-66
2021/05/15 05:14:56;;;;;;;;;;;19.50;64.00;;;;;;5091913;28;1392;-65
2021/05/15 05:17:22;;;;;;;;;;;19.50;64.00;;;;;;5091492;28;1087;-66
2021/05/15 05:19:47;;;;;;;;;;;19.50;64.00;;;;;;5088744;28;1067;-66
2021/05/15 05:22:13;;;;;;;;;;;19.50;63.90;;;;;;5089145;28;1047;-66
2021/05/15 05:24:39;;;;;;;;;;;19.50;64.00;;;;;;5074056;28;1819;-65
2021/05/15 05:27:07;;;;;;;;;;;19.50;64.00;;;;;;5090935;28;1074;-65
2021/05/15 05:29:33;;;;;;;;;;;19.50;64.00;;;;;;5086083;28;1059;-65
2021/05/15 05:31:58;;;;;;;;;;;19.50;63.90;;;;;;5089509;28;1158;-65
2021/05/15 05:34:24;;;;;;;;;;;19.50;63.90;;;;;;5092007;28;1967;-66
2021/05/15 05:36:49;;;;;;;;;;;19.50;63.90;;;;;;5090771;28;1153;-65
2021/05/15 05:39:15;;;;;;;;;;;19.50;63.90;;;;;;5073982;28;1075;-65
2021/05/15 05:41:41;;;;;;;;;;;19.50;63.90;;;;;;5091645;28;1165;-65
2021/05/15 05:44:06;;;;;;;;;;;19.50;63.90;;;;;;5093940;28;1079;-66
2021/05/15 05:46:32;;;;;;;;;;;19.50;63.90;;;;;;5076428;28;1223;-65
2021/05/15 05:48:57;;;;;;;;;;;19.50;63.90;;;;;;5095251;28;1106;-66
2021/05/15 05:51:23;;;;;;;;;;;19.50;63.90;;;;;;5095557;28;1137;-65
2021/05/15 05:53:49;;;;;;;;;;;19.50;63.90;;;;;;5095364;28;1902;-65
2021/05/15 05:56:14;;;;;;;;;;;19.50;63.90;;;;;;5076600;28;1386;-65
2021/05/15 05:58:43;;;;;;;;;;;19.50;63.90;;;;;;5094823;28;1071;-64
2021/05/15 06:01:08;;;;;;;;;;;19.50;63.90;;;;;;5094967;28;1135;-65
2021/05/15 06:03:33;;;;;;;;;;;19.50;63.90;;;;;;5094893;28;1055;-66
2021/05/15 06:05:59;;;;;;;;;;;19.50;64.00;;;;;;5094848;28;1427;-63
2021/05/15 06:08:25;;;;;;;;;;;19.50;63.90;;;;;;5094759;28;1051;-64
2021/05/15 06:10:51;;;;;;;;;;;19.50;63.90;;;;;;5092720;28;1205;-65
2021/05/15 06:13:18;;;;;;;;;;;19.50;63.90;;;;;;5086135;28;1910;-63
2021/05/15 06:15:44;;;;;;;;;;;19.50;63.90;;;;;;5083576;28;2114;-63
2021/05/15 06:18:09;;;;;;;;;;;19.50;63.90;;;;;;5070978;28;1114;-64
2021/05/15 06:20:34;;;;;;;;;;;19.50;63.90;;;;;;5086452;28;1196;-66
2021/05/15 06:23:01;;;;;;;;;;;19.50;63.90;;;;;;5092940;28;1138;-65
2021/05/15 06:25:26;;;;;;;;;;;19.50;63.90;;;;;;5092944;28;1319;-62
2021/05/15 06:27:51;;;;;;;;;;;19.50;63.90;;;;;;5093817;28;1117;-63
2021/05/15 06:30:17;;;;;;;;;;;19.50;63.90;;;;;;5083542;28;1876;-63
2021/05/15 06:32:42;;;;;;;;;;;19.50;63.90;;;;;;5092149;28;1905;-63
2021/05/15 06:35:08;;;;;;;;;;;19.50;64.00;;;;;;5080941;28;1181;-63
2021/05/15 06:37:34;;;;;;;;;;;19.50;63.90;;;;;;5084347;28;1091;-64
2021/05/15 06:39:59;;;;;;;;;;;19.50;63.90;;;;;;5093179;28;1074;-63
2021/05/15 06:42:24;;;;;;;;;;;19.50;63.90;;;;;;5093645;28;1047;-65
2021/05/15 06:44:50;;;;;;;;;;;19.50;63.90;;;;;;5074154;28;1262;-63
2021/05/15 06:47:17;;;;;;;;;;;19.50;63.90;;;;;;5092426;28;1145;-63
2021/05/15 06:49:43;;;;;;;;;;;19.50;63.90;;;;;;5092893;28;1557;-63
2021/05/15 06:52:08;;;;;;;;;;;19.50;63.90;;;;;;5094192;28;1087;-64
2021/05/15 06:54:34;;;;;;;;;;;19.50;63.90;;;;;;5092675;28;1898;-64
2021/05/15 06:56:59;;;;;;;;;;;19.50;63.90;;;;;;5057818;28;1154;-62
2021/05/15 06:59:25;;;;;;;;;;;19.50;63.90;;;;;;5093992;28;1078;-63
2021/05/15 07:01:50;;;;;;;;;;;19.50;63.90;;;;;;5093990;28;1106;-65
2021/05/15 07:04:15;;;;;;;;;;;19.50;63.90;;;;;;5094087;28;1227;-64
2021/05/15 07:06:41;;;;;;;;;;;19.50;63.90;;;;;;5092848;28;1173;-64
2021/05/15 07:09:06;;;;;;;;;;;19.50;63.90;;;;;;5093684;28;1158;-64
2021/05/15 07:11:32;;;;;;;;;;;19.50;63.90;;;;;;5093478;28;1074;-64
2021/05/15 07:13:57;;;;;;;;;;;19.50;63.90;;;;;;5094107;28;1960;-64
2021/05/15 07:16:22;;;;;;;;;;;19.50;63.90;;;;;;5092628;28;1240;-65
2021/05/15 07:18:48;;;;;;;;;;;19.50;63.90;;;;;;5075618;28;1286;-64
2021/05/15 07:21:13;;;;;;;;;;;19.50;63.90;;;;;;5087898;28;1101;-63
2021/05/15 07:23:39;;;;;;;;;;;19.50;63.90;;;;;;5075589;28;1111;-64
2021/05/15 07:26:07;;;;;;;;;;;19.50;63.90;;;;;;5092750;28;1286;-64
2021/05/15 07:28:33;;;;;;;;;;;19.50;63.90;;;;;;5093145;28;1126;-63
2021/05/15 07:31:01;;;;;;;;;;;19.50;63.90;;;;;;5085099;28;1173;-64
2021/05/15 07:33:26;;;;;;;;;;;19.50;63.90;;;;;;5092748;28;1901;-64
2021/05/15 07:35:52;;;;;;;;;;;19.50;64.00;;;;;;5092699;28;1264;-64
2021/05/15 07:38:18;;;;;;;;;;;19.50;63.90;;;;;;5093103;28;1027;-64
2021/05/15 07:40:44;;;;;;;;;;;19.50;64.00;;;;;;5075067;28;1672;-65
2021/05/15 07:43:09;;;;;;;;;;;19.50;63.90;;;;;;5092517;28;1102;-64
2021/05/15 07:45:35;;;;;;;;;;;19.50;63.90;;;;;;5074307;28;1282;-64
2021/05/15 07:48:00;;;;;;;;;;;19.50;63.90;;;;;;5093033;28;1102;-64
2021/05/15 07:50:26;;;;;;;;;;;19.50;63.90;;;;;;5093350;28;1079;-66
2021/05/15 07:52:52;;;;;;;;;;;19.50;63.90;;;;;;5092570;28;1894;-65
2021/05/15 07:55:17;;;;;;;;;;;19.50;63.90;;;;;;5092050;28;1296;-64
2021/05/15 07:57:43;;;;;;;;;;;19.50;63.90;;;;;;5092559;28;1102;-65
2021/05/15 08:00:08;;;;;;;;;;;19.50;63.90;;;;;;5093061;28;1075;-64
2021/05/15 08:02:35;;;;;;;;;;;19.50;63.90;;;;;;5074555;28;1131;-64
2021/05/15 08:05:00;;;;;;;;;;;19.50;64.60;;;;;;5092157;28;1341;-65
2021/05/15 08:07:26;;;;;;;;;;;19.50;63.90;;;;;;5091675;28;1055;-63
2021/05/15 08:09:51;;;;;;;;;;;19.50;63.90;;;;;;5092831;28;1146;-64
2021/05/15 08:12:16;;;;;;;;;;;19.50;63.90;;;;;;5092566;28;1098;-65
2021/05/15 08:14:42;;;;;;;;;;;19.50;63.90;;;;;;5074580;28;1913;-63
2021/05/15 08:17:07;;;;;;;;;;;19.50;63.90;;;;;;5091243;28;1067;-64
2021/05/15 08:19:33;;;;;;;;;;;19.50;63.90;;;;;;5073936;28;1075;-66
2021/05/15 08:21:58;;;;;;;;;;;19.50;63.90;;;;;;5084139;28;1898;-63
2021/05/15 08:24:24;;;;;;;;;;;19.50;63.90;;;;;;5081505;28;1369;-63
2021/05/15 08:26:50;;;;;;;;;;;19.50;64.00;;;;;;5083458;28;1126;-64
2021/05/15 08:29:17;;;;;;;;;;;19.50;63.90;;;;;;5068988;28;1113;-64
2021/05/15 08:31:43;;;;;;;;;;;19.50;63.80;;;;;;5091360;28;1351;-63
2021/05/15 08:34:08;;;;;;;;;;;19.50;63.90;;;;;;5092610;28;1902;-63
2021/05/15 08:36:34;;;;;;;;;;;19.50;63.80;;;;;;5091222;28;1062;-64
2021/05/15 08:38:59;;;;;;;;;;;19.50;63.90;;;;;;5092544;28;1114;-64
2021/05/15 08:41:25;;;;;;;;;;;19.50;63.90;;;;;;5091924;28;1067;-63
2021/05/15 08:43:50;;;;;;;;;;;19.50;63.90;;;;;;5092623;28;1062;-63
2021/05/15 08:46:16;;;;;;;;;;;19.50;63.90;;;;;;5073195;28;1309;-64
2021/05/15 08:48:42;;;;;;;;;;;19.50;63.90;;;;;;5092351;28;1141;-63
2021/05/15 08:51:07;;;;;;;;;;;19.50;63.90;;;;;;5092388;28;1050;-63
2021/05/15 08:53:34;;;;;;;;;;;19.50;63.90;;;;;;5091798;28;1951;-64
2021/05/15 08:56:00;;;;;;;;;;;19.50;63.90;;;;;;5073132;28;1200;-63
2021/05/15 08:58:25;;;;;;;;;;;19.50;63.90;;;;;;5073778;28;1055;-66
2021/05/15 09:00:51;;;;;;;;;;;19.50;63.90;;;;;;5073554;28;1099;-63
2021/05/15 09:03:16;;;;;;;;;;;19.50;63.90;;;;;;5082181;28;1199;-63
2021/05/15 09:05:43;;;;;;;;;;;19.50;63.80;;;;;;5090527;28;1287;-63
2021/05/15 09:08:10;;;;;;;;;;;19.50;63.80;;;;;;5074216;28;1149;-63
2021/05/15 09:10:36;;;;;;;;;;;19.50;63.90;;;;;;5091023;28;1121;-63
2021/05/15 09:13:05;;;;;;;;;;;19.50;63.90;;;;;;5091157;28;1894;-63
2021/05/15 09:15:41;;;;;;;;;;;19.50;63.90;;;;;;5055195;28;1441;-64
2021/05/15 09:18:07;;;;;;;;;;;19.50;63.80;;;;;;5070887;28;1289;-64
2021/05/15 09:20:33;;;;;;;;;;;19.50;63.90;;;;;;5068239;28;1292;-64
2021/05/15 09:23:09;;;;;;;;;;;19.50;63.80;;;;;;5067230;28;1282;-64
2021/05/15 09:25:34;;;;;;;;;;;19.50;63.80;;;;;;5087403;28;1298;-64
2021/05/15 09:28:00;;;;;;;;;;;19.50;63.80;;;;;;5070037;28;2499;-65
2021/05/15 09:30:25;;;;;;;;;;;19.50;63.80;;;;;;5084848;28;2090;-65
2021/05/15 09:32:51;;;;;;;;;;;19.50;63.80;;;;;;5072987;28;1957;-64
2021/05/15 09:35:20;;;;;;;;;;;19.50;63.80;;;;;;5088808;28;1403;-65
2021/05/15 09:37:48;;;;;;;;;;;19.50;63.90;;;;;;5071001;28;1090;-65
2021/05/15 09:40:18;;;;;;;;;;;19.50;63.90;;;;;;5077425;28;1169;-64
2021/05/15 09:42:47;;;;;;;;;;;19.50;63.90;;;;;;5077348;28;1126;-64
2021/05/15 09:45:22;;;;;;;;;;;19.50;63.90;;;;;;5094547;28;1285;-65
2021/05/15 09:47:52;;;;;;;;;;;19.50;63.90;;;;;;5094705;28;1106;-64
2021/05/15 09:50:17;;;;;;;;;;;19.50;63.90;;;;;;5095375;28;1066;-65
2021/05/15 09:52:43;;;;;;;;;;;19.50;63.90;;;;;;5091136;28;1893;-64
2021/05/15 09:55:09;;;;;;;;;;;19.50;63.90;;;;;;5065596;28;1797;-66
2021/05/15 09:57:36;;;;;;;;;;;19.50;64.00;;;;;;5088774;28;1926;-65
2021/05/15 10:00:08;;;;;;;;;;;19.50;63.90;;;;;;5085091;28;1393;-64
2021/05/15 10:02:34;;;;;;;;;;;19.50;64.00;;;;;;5069535;28;1415;-64
2021/05/15 10:05:00;;;;;;;;;;;19.50;64.00;;;;;;5067904;28;1714;-64
2021/05/15 10:07:29;;;;;;;;;;;19.50;63.90;;;;;;5055085;28;1254;-64
2021/05/15 10:09:58;;;;;;;;;;;19.50;64.00;;;;;;5077004;28;1629;-64
2021/05/15 10:12:24;;;;;;;;;;;19.50;63.90;;;;;;5094946;28;1169;-64
2021/05/15 10:14:49;;;;;;;;;;;19.50;64.00;;;;;;5076588;28;1963;-65
2021/05/15 10:17:14;;;;;;;;;;;19.50;63.90;;;;;;5075790;28;1158;-64
2021/05/15 10:19:40;;;;;;;;;;;19.50;64.00;;;;;;5092945;28;1082;-64
2021/05/15 10:22:05;;;;;;;;;;;19.50;64.00;;;;;;5091477;28;1091;-64
2021/05/15 10:24:31;;;;;;;;;;;19.50;64.00;;;;;;5094798;28;1244;-64
2021/05/15 10:27:01;;;;;;;;;;;19.50;64.00;;;;;;5093500;28;1066;-64
2021/05/15 10:29:35;;;;;;;;;;;19.50;64.00;;;;;;5071697;28;1185;-64
2021/05/15 10:32:01;;;;;;;;;;;19.50;64.00;;;;;;5092255;28;1460;-64
2021/05/15 10:34:33;;;;;;;;;;;19.50;63.90;;;;;;5076603;28;1905;-64
2021/05/15 10:36:58;;;;;;;;;;;19.50;63.90;;;;;;5093243;28;1130;-65
2021/05/15 10:39:27;;;;;;;;;;;19.50;63.90;;;;;;5090810;28;907;-63
2021/05/15 10:41:53;;;;;;;;;;;19.50;63.90;;;;;;5092176;28;1079;-68
2021/05/15 10:44:18;;;;;;;;;;;19.50;64.70;;;;;;5094333;28;1369;-68
2021/05/15 10:46:47;;;;;;;;;;;19.50;64.00;;;;;;5093400;28;1126;-68
2021/05/15 10:49:17;;;;;;;;;;;19.50;63.90;;;;;;5058082;28;1822;-68
2021/05/15 10:51:44;;;;;;;;;;;19.50;63.90;;;;;;5091833;28;1218;-68
2021/05/15 10:54:10;;;;;;;;;;;19.50;63.90;;;;;;5087408;28;1878;-67
2021/05/15 10:56:36;;;;;;;;;;;19.50;64.00;;;;;;5084823;28;1129;-68
2021/05/15 10:59:01;;;;;;;;;;;19.50;63.90;;;;;;5093640;28;1274;-68
2021/05/15 11:01:27;;;;;;;;;;;19.50;63.90;;;;;;5093931;28;1130;-67
2021/05/15 11:03:52;;;;;;;;;;;19.50;64.00;;;;;;5093261;28;1058;-68
2021/05/15 11:06:18;;;;;;;;;;;19.50;63.90;;;;;;5092914;28;1368;-68
2021/05/15 11:08:55;;;;;;;;;;;19.50;64.00;;;;;;5075496;28;1170;-66
2021/05/15 11:11:20;;;;;;;;;;;19.50;63.90;;;;;;5075281;28;1118;-68
2021/05/15 11:13:46;;;;;;;;;;;19.50;64.00;;;;;;5075347;28;1901;-68
2021/05/15 11:16:12;;;;;;;;;;;19.50;64.00;;;;;;5093046;28;1292;-68
2021/05/15 11:18:38;;;;;;;;;;;19.50;63.90;;;;;;5093288;28;1166;-68
2021/05/15 11:21:05;;;;;;;;;;;19.50;63.90;;;;;;5088973;28;1110;-66
2021/05/15 11:23:36;;;;;;;;;;;19.50;64.00;;;;;;5093559;28;1120;-66
2021/05/15 11:26:03;;;;;;;;;;;19.50;64.00;;;;;;5073570;28;1859;-67
2021/05/15 11:28:29;;;;;;;;;;;19.50;63.90;;;;;;5092061;28;1289;-68
2021/05/15 11:30:55;;;;;;;;;;;19.50;64.00;;;;;;5070913;28;1142;-68
2021/05/15 11:33:21;;;;;;;;;;;19.50;64.00;;;;;;5080272;28;1902;-66
2021/05/15 11:35:47;;;;;;;;;;;19.50;64.00;;;;;;5065427;28;1377;-67
2021/05/15 11:38:17;;;;;;;;;;;19.50;64.00;;;;;;5073549;28;1067;-67
2021/05/15 11:40:45;;;;;;;;;;;19.50;63.90;;;;;;5079643;28;2817;-66
2021/05/15 11:43:11;;;;;;;;;;;19.50;64.00;;;;;;5090990;28;1066;-66
2021/05/15 11:45:36;;;;;;;;;;;19.50;63.90;;;;;;5088666;28;1374;-67
2021/05/15 11:48:19;;;;;;;;;;;19.50;64.00;;;;;;5074040;28;1059;-67
2021/05/15 11:50:45;;;;;;;;;;;19.50;64.00;;;;;;5092091;28;1083;-66
2021/05/15 11:53:11;;;;;;;;;;;19.50;63.90;;;;;;5074133;28;1918;-67
2021/05/15 11:55:36;;;;;;;;;;;19.50;63.90;;;;;;5091844;28;1372;-67
2021/05/15 11:58:02;;;;;;;;;;;19.50;64.00;;;;;;5073050;28;1694;-67
2021/05/15 12:00:28;;;;;;;;;;;19.50;64.00;;;;;;5082504;28;1111;-68
2021/05/15 12:02:53;;;;;;;;;;;19.50;63.90;;;;;;5088871;28;957;-67
2021/05/15 12:05:19;;;;;;;;;;;19.50;64.00;;;;;;5091281;28;1337;-67
2021/05/15 12:07:47;;;;;;;;;;;19.50;64.00;;;;;;5086801;22;3717;-71
2021/05/15 12:10:14;;;;;;;;;;;19.50;64.00;;;;;;5060691;28;2225;-73
2021/05/15 12:12:39;;;;;;;;;;;19.50;64.00;;;;;;5068784;28;1414;-74
2021/05/15 12:15:05;;;;;;;;;;;19.50;64.00;;;;;;5063459;28;1926;-74
2021/05/15 12:17:30;;;;;;;;;;;19.50;64.00;;;;;;5045157;28;1268;-74
2021/05/15 12:19:56;;;;;;;;;;;19.50;64.00;;;;;;5041882;28;1267;-74
2021/05/15 12:22:24;;;;;;;;;;;19.50;64.00;;;;;;5047134;28;1478;-74
2021/05/15 12:24:49;;;;;;;;;;;19.50;64.00;;;;;;5051572;28;1475;-74
2021/05/15 12:27:21;;;;;;;;;;;19.50;64.00;;;;;;5052064;28;1443;-74
2021/05/15 12:29:59;;;;;;;;;;;19.50;63.90;;;;;;5045253;28;1177;-74
2021/05/15 12:32:28;;;;;;;;;;;19.50;64.00;;;;;;5051174;28;1064;-74
2021/05/15 12:34:57;;;;;;;;;;;19.50;64.00;;;;;;5052686;28;1898;-72
2021/05/15 12:37:22;;;;;;;;;;;19.50;64.00;;;;;;5050277;28;1385;-73
2021/05/15 12:39:51;;;;;;;;;;;19.50;64.00;;;;;;5052191;28;1361;-74
2021/05/15 12:42:16;;;;;;;;;;;19.50;64.00;;;;;;5051512;28;1471;-73
2021/05/15 12:44:42;;;;;;;;;;;19.50;64.00;;;;;;5051404;28;1033;-73
2021/05/15 12:47:08;;;;;;;;;;;19.50;64.00;;;;;;5051631;28;1224;-73
2021/05/15 12:49:33;;;;;;;;;;;19.50;64.00;;;;;;5052497;28;1386;-73
2021/05/15 12:51:59;;;;;;;;;;;19.50;64.00;;;;;;5053002;28;1376;-71
2021/05/15 12:54:27;;;;;;;;;;;19.50;64.00;;;;;;5056137;28;1951;-72
2021/05/15 12:56:56;;;;;;;;;;;19.50;63.90;;;;;;5054179;28;1706;-73
2021/05/15 12:59:28;;;;;;;;;;;19.50;64.00;;;;;;5055879;28;1463;-71
2021/05/15 13:02:04;;;;;;;;;;;19.50;63.90;;;;;;5055014;28;1414;-72
2021/05/15 13:04:29;;;;;;;;;;;19.50;64.00;;;;;;5055447;28;1037;-73
2021/05/15 13:06:56;;;;;;;;;;;19.50;64.00;;;;;;5055907;28;1638;-73
2021/05/15 13:09:25;;;;;;;;;;;19.50;64.00;;;;;;5058666;28;1633;-74
2021/05/15 13:11:50;;;;;;;;;;;19.50;64.00;;;;;;5047526;28;1286;-74
2021/05/15 13:14:17;;;;;;;;;;;19.50;64.00;;;;;;5064179;28;1944;-73
2021/05/15 13:16:43;;;;;;;;;;;19.50;64.00;;;;;;5057747;28;1250;-73
2021/05/15 13:19:08;;;;;;;;;;;19.50;64.00;;;;;;5055924;28;1464;-73
2021/05/15 13:21:34;;;;;;;;;;;19.50;63.90;;;;;;5055897;28;1397;-70
2021/05/15 13:24:00;;;;;;;;;;;19.50;64.00;;;;;;5035901;28;1910;-70
2021/05/15 13:26:25;;;;;;;;;;;19.50;64.00;;;;;;5053588;28;1655;-70
2021/05/15 13:28:51;;;;;;;;;;;19.50;64.00;;;;;;5054784;28;1693;-69
2021/05/15 13:31:16;;;;;;;;;;;19.50;64.00;;;;;;5046398;28;1466;-69
2021/05/15 13:33:42;;;;;;;;;;;19.50;64.00;;;;;;5055290;28;1898;-69
2021/05/15 13:36:07;;;;;;;;;;;19.50;63.90;;;;;;5053907;28;1339;-70
2021/05/15 13:38:33;;;;;;;;;;;19.50;64.00;;;;;;5053945;28;1486;-69
2021/05/15 13:40:58;;;;;;;;;;;19.50;64.00;;;;;;5054631;28;1657;-69
2021/05/15 13:43:24;;;;;;;;;;;19.50;63.90;;;;;;5054129;28;1424;-70
2021/05/15 13:45:50;;;;;;;;;;;19.50;64.00;;;;;;5053416;28;1663;-69
2021/05/15 13:48:29;;;;;;;;;;;19.50;64.00;;;;;;5054286;28;1501;-70
2021/05/15 13:50:56;;;;;;;;;;;19.50;64.00;;;;;;5053578;28;1588;-71
2021/05/15 13:53:22;;;;;;;;;;;19.50;64.00;;;;;;5053884;28;1894;-71
2021/05/15 13:55:47;;;;;;;;;;;19.50;64.00;;;;;;5045406;28;2218;-71
2021/05/15 13:58:13;;;;;;;;;;;19.50;63.90;;;;;;5049420;28;1524;-70
2021/05/15 14:00:38;;;;;;;;;;;19.50;63.90;;;;;;5043020;28;1558;-70
2021/05/15 14:03:03;;;;;;;;;;;19.50;63.90;;;;;;5054455;28;1682;-69
2021/05/15 14:05:29;;;;;;;;;;;19.50;63.90;;;;;;5051126;28;2031;-68
2021/05/15 14:07:54;;;;;;;;;;;19.50;64.70;;;;;;5051540;28;1691;-70
2021/05/15 14:10:20;;;;;;;;;;;19.50;63.90;;;;;;5035210;28;1466;-70
2021/05/15 14:12:45;;;;;;;;;;;19.50;63.90;;;;;;5053910;28;1370;-70
2021/05/15 14:15:11;;;;;;;;;;;19.50;63.90;;;;;;5053107;28;1906;-68
2021/05/15 14:17:36;;;;;;;;;;;19.50;63.90;;;;;;5053886;28;1375;-69
2021/05/15 14:20:02;;;;;;;;;;;19.50;63.90;;;;;;5049523;28;1637;-67
2021/05/15 14:22:28;;;;;;;;;;;19.50;63.90;;;;;;5053491;28;1365;-68
2021/05/15 14:24:53;;;;;;;;;;;19.50;63.90;;;;;;5053390;28;1414;-67